createdAt,value
2023-02-04T00:00:21.727Z,60.20
2023-02-04T00:02:50.115Z,56.60
2023-02-04T00:05:18.697Z,54.97
2023-02-04T00:07:46.533Z,49.83
2023-02-04T00:10:14.291Z,54.03
2023-02-04T00:12:41.754Z,52.95
2023-02-04T00:15:11.036Z,55.92
2023-02-04T00:17:39.691Z,59.92
2023-02-04T00:20:07.788Z,58.42
2023-02-04T00:22:35.260Z,59.00
2023-02-04T00:25:03.016Z,56.47
2023-02-04T00:27:31.220Z,50.15
2023-02-04T00:30:02.007Z,50.70
2023-02-04T00:32:31.527Z,49.30
2023-02-04T00:34:59.063Z,52.30
2023-02-04T00:37:26.614Z,59.38
2023-02-04T00:39:54.128Z,52.88
2023-02-04T00:42:21.589Z,56.40
2023-02-04T00:44:49.189Z,56.85
2023-02-04T00:47:17.840Z,60.35
2023-02-04T00:49:45.369Z,47.22
2023-02-04T00:52:12.911Z,57.08
2023-02-04T00:54:41.415Z,52.53
2023-02-04T00:57:08.896Z,52.47
2023-02-04T00:59:36.344Z,54.85
2023-02-04T01:02:03.858Z,54.35
2023-02-04T01:04:31.374Z,53.78
2023-02-04T01:06:59.035Z,58.17
2023-02-04T01:09:27.454Z,42.03
2023-02-04T01:11:55.043Z,43.78
2023-02-04T01:14:22.550Z,38.47
2023-02-04T01:16:50.166Z,43.67
2023-02-04T01:19:17.669Z,40.15
2023-02-04T01:21:45.184Z,50.92
2023-02-04T01:24:13.043Z,38.95
2023-02-04T01:26:58.987Z,40.58
2023-02-04T01:29:26.535Z,30.30
2023-02-04T01:31:54.055Z,38.78
2023-02-04T01:34:22.067Z,43.40
2023-02-04T01:36:49.673Z,37.38
2023-02-04T01:39:18.192Z,43.30
2023-02-04T01:41:47.528Z,46.30
2023-02-04T01:44:15.082Z,46.72
2023-02-04T01:46:42.947Z,37.10
2023-02-04T01:49:11.624Z,46.45
2023-02-04T01:51:39.800Z,43.60
2023-02-04T01:54:12.426Z,36.00
2023-02-04T01:56:43.371Z,38.17
2023-02-04T01:59:15.586Z,39.03
2023-02-04T02:01:46.634Z,45.45
2023-02-04T02:04:21.010Z,42.83
2023-02-04T02:06:55.707Z,51.30
2023-02-04T02:09:23.893Z,40.90
2023-02-04T02:11:51.687Z,38.92
2023-02-04T02:14:20.264Z,42.78
2023-02-04T02:16:47.951Z,42.85
2023-02-04T02:19:24.629Z,42.17
2023-02-04T02:22:07.441Z,41.40
2023-02-04T02:24:36.344Z,47.42
2023-02-04T02:27:08.685Z,41.17
2023-02-04T02:29:38.907Z,38.10
2023-02-04T02:32:06.922Z,39.53
2023-02-04T02:34:35.490Z,43.20
2023-02-04T02:37:04.873Z,41.55
2023-02-04T02:39:33.078Z,30.10
2023-02-04T02:42:00.809Z,41.75
2023-02-04T02:44:30.488Z,31.77
2023-02-04T02:46:58.381Z,31.23
2023-02-04T02:49:27.577Z,25.85
2023-02-04T02:51:55.283Z,39.03
2023-02-04T02:54:32.763Z,28.45
2023-02-04T02:57:03.437Z,23.95
2023-02-04T02:59:31.013Z,32.58
2023-02-04T03:02:02.385Z,24.15
2023-02-04T03:04:38.778Z,29.70
2023-02-04T03:07:07.952Z,45.83
2023-02-04T03:09:36.444Z,44.08
2023-02-04T03:12:06.477Z,47.08
2023-02-04T03:14:38.564Z,44.78
2023-02-04T03:17:09.506Z,50.63
2023-02-04T03:19:38.223Z,48.15
2023-02-04T03:22:07.299Z,56.80
2023-02-04T03:24:36.503Z,67.63
2023-02-04T03:27:04.847Z,60.40
2023-02-04T03:29:32.488Z,55.42
2023-02-04T03:32:06.753Z,57.47
2023-02-04T03:34:34.183Z,49.58
2023-02-04T03:37:01.738Z,55.92
2023-02-04T03:39:29.520Z,47.55
2023-02-04T03:41:56.995Z,60.67
2023-02-04T03:44:27.157Z,50.78
2023-02-04T03:46:55.903Z,49.20
2023-02-04T03:49:24.188Z,44.92
2023-02-04T03:51:52.244Z,49.15
2023-02-04T03:54:19.834Z,47.67
2023-02-04T03:56:47.462Z,32.67
2023-02-04T03:59:14.985Z,36.10
2023-02-04T04:01:42.586Z,33.25
2023-02-04T04:04:10.308Z,42.17
2023-02-04T04:06:37.978Z,36.30
2023-02-04T04:09:05.591Z,37.63
2023-02-04T04:11:33.164Z,35.72
2023-02-04T04:14:01.645Z,34.70
2023-02-04T04:16:29.418Z,45.80
2023-02-04T04:18:57.134Z,41.08
2023-02-04T04:21:24.674Z,38.00
2023-02-04T04:23:52.194Z,42.22
2023-02-04T04:26:20.395Z,45.42
2023-02-04T04:28:48.036Z,42.10
2023-02-04T04:31:15.832Z,45.75
2023-02-04T04:33:44.213Z,37.05
2023-02-04T04:36:11.874Z,39.50
2023-02-04T04:38:39.398Z,42.50
2023-02-04T04:41:06.979Z,41.80
2023-02-04T04:43:34.469Z,36.90
2023-02-04T04:46:02.417Z,38.20
2023-02-04T04:48:31.840Z,39.00
2023-02-04T04:50:59.484Z,40.30
2023-02-04T04:53:27.053Z,39.42
2023-02-04T04:55:54.694Z,39.75
2023-02-04T04:58:22.348Z,41.95
2023-02-04T05:00:49.827Z,49.85
2023-02-04T05:03:17.308Z,44.67
2023-02-04T05:05:44.849Z,43.15
2023-02-04T05:08:14.424Z,41.53
2023-02-04T05:10:42.355Z,39.22
2023-02-04T05:13:10.412Z,36.25
2023-02-04T05:15:38.161Z,38.22
2023-02-04T05:18:06.068Z,39.00
2023-02-04T05:20:34.835Z,36.88
2023-02-04T05:23:05.155Z,34.22
2023-02-04T05:25:33.651Z,36.63
2023-02-04T05:28:01.383Z,41.10
2023-02-04T05:30:29.187Z,30.77
2023-02-04T05:32:56.746Z,35.55
2023-02-04T05:35:24.650Z,38.75
2023-02-04T05:37:52.161Z,40.85
2023-02-04T05:40:19.759Z,47.67
2023-02-04T05:42:47.249Z,39.78
2023-02-04T05:45:16.627Z,42.40
2023-02-04T05:47:44.219Z,45.47
2023-02-04T05:50:12.185Z,42.72
2023-02-04T05:52:40.521Z,47.75
2023-02-04T05:55:10.744Z,42.75
2023-02-04T05:57:39.724Z,45.72
2023-02-04T06:00:08.377Z,45.03
2023-02-04T06:02:41.754Z,43.95
2023-02-04T06:05:12.233Z,39.30
2023-02-04T06:07:39.840Z,43.10
2023-02-04T06:10:11.940Z,46.63
2023-02-04T06:12:42.858Z,38.08
2023-02-04T06:15:11.121Z,42.67
2023-02-04T06:17:38.927Z,41.92
2023-02-04T06:20:07.478Z,42.60
2023-02-04T06:22:35.077Z,47.65
2023-02-04T06:25:02.704Z,50.53
2023-02-04T06:27:30.980Z,47.25
2023-02-04T06:29:58.881Z,48.40
2023-02-04T06:32:28.282Z,49.45
2023-02-04T06:34:56.437Z,50.15
2023-02-04T06:37:24.474Z,59.40
2023-02-04T06:39:52.498Z,61.30
2023-02-04T06:42:20.195Z,55.97
2023-02-04T06:44:47.811Z,58.35
2023-02-04T06:47:15.281Z,50.08
2023-02-04T06:49:42.936Z,53.42
2023-02-04T06:52:10.593Z,53.58
2023-02-04T06:54:38.623Z,53.47
2023-02-04T06:57:12.550Z,56.58
2023-02-04T07:02:11.418Z,52.67
2023-02-04T07:04:41.441Z,51.00
2023-02-04T07:07:09.111Z,48.78
2023-02-04T07:09:36.605Z,48.58
2023-02-04T07:12:05.384Z,47.40
2023-02-04T07:14:33.067Z,50.20
2023-02-04T07:17:00.692Z,51.03
2023-02-04T07:19:28.402Z,60.17
2023-02-04T07:21:57.296Z,53.45
2023-02-04T07:24:25.460Z,50.40
2023-02-04T07:26:53.026Z,61.25
2023-02-04T07:29:25.687Z,53.08
2023-02-04T07:31:54.258Z,57.58
2023-02-04T07:34:22.012Z,54.40
2023-02-04T07:36:49.696Z,60.53
2023-02-04T07:39:17.188Z,62.22
2023-02-04T07:41:44.708Z,57.58
2023-02-04T07:44:14.630Z,59.33
2023-02-04T07:46:42.168Z,58.45
2023-02-04T07:49:09.822Z,61.80
2023-02-04T07:51:37.801Z,63.50
2023-02-04T07:54:06.149Z,57.25
2023-02-04T07:56:34.135Z,53.10
2023-02-04T07:59:02.938Z,52.55
2023-02-04T08:01:35.491Z,58.55
2023-02-04T08:04:03.057Z,57.70
2023-02-04T08:06:30.754Z,56.03
2023-02-04T08:08:59.065Z,59.65
2023-02-04T08:11:27.630Z,54.40
2023-02-04T08:13:55.226Z,50.55
2023-02-04T08:16:22.851Z,49.30
2023-02-04T08:18:50.336Z,49.40
2023-02-04T08:21:19.386Z,47.05
2023-02-04T08:23:47.821Z,38.13
2023-02-04T08:26:15.452Z,36.60
2023-02-04T08:28:42.943Z,46.55
2023-02-04T08:31:13.591Z,41.40
2023-02-04T08:33:41.224Z,48.28
2023-02-04T08:36:09.272Z,47.65
2023-02-04T08:38:36.927Z,45.92
2023-02-04T08:41:04.864Z,41.85
2023-02-04T08:43:32.324Z,48.15
2023-02-04T08:45:59.943Z,40.88
2023-02-04T08:48:27.535Z,44.15
2023-02-04T08:50:54.994Z,47.92
2023-02-04T08:53:22.566Z,42.70
2023-02-04T08:55:50.061Z,46.03
2023-02-04T08:58:17.633Z,44.70
2023-02-04T09:00:45.328Z,50.90
2023-02-04T09:03:12.985Z,39.28
2023-02-04T09:05:40.493Z,35.55
2023-02-04T09:08:08.050Z,48.25
2023-02-04T09:10:35.633Z,37.38
2023-02-04T09:13:04.419Z,48.72
2023-02-04T09:15:31.843Z,44.15
2023-02-04T09:18:11.564Z,39.63
2023-02-04T09:20:39.501Z,50.60
2023-02-04T09:23:15.595Z,56.40
2023-02-04T09:25:44.643Z,57.75
2023-02-04T09:28:13.700Z,56.17
2023-02-04T09:30:42.442Z,61.65
2023-02-04T09:33:11.804Z,58.45
2023-02-04T09:35:39.705Z,63.72
2023-02-04T09:38:07.283Z,58.85
2023-02-04T09:40:41.290Z,61.67
2023-02-04T09:43:14.717Z,55.38
2023-02-04T09:45:44.567Z,51.72
2023-02-04T09:48:15.019Z,51.78
2023-02-04T09:50:42.758Z,58.50
2023-02-04T09:53:18.216Z,49.40
2023-02-04T09:55:48.026Z,63.78
2023-02-04T09:58:21.005Z,51.58
2023-02-04T10:00:57.341Z,57.55
2023-02-04T10:03:25.343Z,47.17
2023-02-04T10:05:54.001Z,45.67
2023-02-04T10:08:29.825Z,46.00
2023-02-04T10:11:00.196Z,51.72
2023-02-04T10:13:34.258Z,41.10
2023-02-04T10:16:02.294Z,39.30
2023-02-04T10:18:33.240Z,42.17
2023-02-04T10:21:17.566Z,35.85
2023-02-04T10:23:48.962Z,38.67
2023-02-04T10:26:29.047Z,34.55
2023-02-04T10:29:08.214Z,32.13
2023-02-04T10:31:40.471Z,30.33
2023-02-04T10:34:13.563Z,30.13
2023-02-04T10:36:43.147Z,32.03
2023-02-04T10:39:15.072Z,28.42
2023-02-04T10:41:49.729Z,29.33
2023-02-04T10:44:20.512Z,33.45
2023-02-04T10:46:48.748Z,26.27
2023-02-04T10:49:26.789Z,24.85
2023-02-04T10:51:54.558Z,24.52
2023-02-04T10:54:39.744Z,24.33
2023-02-04T10:57:23.645Z,32.83
2023-02-04T10:59:55.495Z,32.22
2023-02-04T11:02:52.321Z,31.67
2023-02-04T11:05:23.719Z,30.38
2023-02-04T11:07:54.430Z,31.30
2023-02-04T11:10:39.731Z,29.20
2023-02-04T11:13:07.762Z,25.55
2023-02-04T11:16:19.532Z,19.52
2023-02-04T11:18:58.252Z,27.92
2023-02-04T11:21:34.667Z,23.13
2023-02-04T11:24:14.368Z,21.48
2023-02-04T11:26:51.679Z,29.70
2023-02-04T11:29:39.019Z,30.33
2023-02-04T11:32:28.419Z,23.42
2023-02-04T11:35:16.215Z,23.33
2023-02-04T11:37:45.388Z,30.27
2023-02-04T11:40:28.146Z,31.02
2023-02-04T11:43:16.449Z,31.48
2023-02-04T11:45:44.307Z,30.13
2023-02-04T11:48:19.259Z,31.00
2023-02-04T11:51:01.080Z,32.75
2023-02-04T11:53:34.077Z,31.15
2023-02-04T11:56:01.707Z,33.33
2023-02-04T11:58:31.345Z,41.17
2023-02-04T12:00:59.758Z,36.53
2023-02-04T12:03:30.818Z,34.75
2023-02-04T12:05:59.588Z,36.40
2023-02-04T12:08:37.019Z,35.10
2023-02-04T12:11:26.223Z,34.70
2023-02-04T12:13:56.711Z,30.27
2023-02-04T12:16:24.745Z,32.67
2023-02-04T12:18:52.498Z,28.90
2023-02-04T12:21:20.319Z,33.85
2023-02-04T12:23:47.780Z,27.67
2023-02-04T12:26:15.375Z,34.85
2023-02-04T12:28:43.153Z,37.13
2023-02-04T12:31:10.634Z,35.92
2023-02-04T12:33:38.235Z,36.58
2023-02-04T12:36:06.048Z,32.25
2023-02-04T12:38:33.597Z,32.42
2023-02-04T12:41:01.075Z,35.95
2023-02-04T12:43:28.735Z,44.75
2023-02-04T12:45:56.354Z,35.58
2023-02-04T12:48:23.981Z,30.95
2023-02-04T12:50:51.502Z,32.28
2023-02-04T12:53:18.971Z,32.75
2023-02-04T12:55:46.499Z,47.83
2023-02-04T12:58:14.108Z,39.22
2023-02-04T13:00:42.512Z,37.55
2023-02-04T13:03:10.012Z,39.83
2023-02-04T13:05:37.577Z,32.15
2023-02-04T13:08:05.347Z,36.85
2023-02-04T13:10:32.892Z,34.88
2023-02-04T13:13:02.405Z,36.45
2023-02-04T13:15:31.888Z,32.40
2023-02-04T13:17:59.632Z,30.75
2023-02-04T13:20:27.170Z,37.22
2023-02-04T13:22:54.723Z,37.55
2023-02-04T13:25:22.198Z,33.58
2023-02-04T13:27:49.774Z,30.33
2023-02-04T13:30:17.585Z,36.72
2023-02-04T13:32:46.100Z,35.35
2023-02-04T13:35:13.571Z,38.15
2023-02-04T13:37:41.081Z,34.55
2023-02-04T13:40:09.826Z,34.88
2023-02-04T13:42:37.428Z,35.47
2023-02-04T13:45:07.900Z,33.70
2023-02-04T13:47:35.436Z,29.33
2023-02-04T13:50:02.898Z,28.70
2023-02-04T13:52:30.632Z,30.13
2023-02-04T13:54:58.226Z,30.73
2023-02-04T13:57:25.725Z,35.58
2023-02-04T13:59:53.575Z,33.90
2023-02-04T14:02:24.309Z,35.97
2023-02-04T14:04:52.027Z,34.83
2023-02-04T14:07:19.516Z,43.10
2023-02-04T14:09:48.808Z,46.38
2023-02-04T14:12:16.414Z,39.58
2023-02-04T14:14:44.008Z,32.38
2023-02-04T14:17:11.531Z,29.85
2023-02-04T14:19:39.100Z,34.55
2023-02-04T14:22:06.683Z,39.72
2023-02-04T14:24:34.588Z,31.73
2023-02-04T14:27:07.472Z,34.55
2023-02-04T14:29:35.270Z,36.37
2023-02-04T14:32:02.769Z,29.63
2023-02-04T14:34:30.413Z,33.70
2023-02-04T14:36:58.045Z,35.08
2023-02-04T14:39:25.595Z,41.90
2023-02-04T14:41:53.236Z,30.83
2023-02-04T14:44:21.198Z,35.17
2023-02-04T14:46:49.422Z,38.92
2023-02-04T14:49:17.767Z,33.70
2023-02-04T14:51:45.388Z,41.00
2023-02-04T14:54:12.948Z,42.70
2023-02-04T14:56:40.562Z,39.35
2023-02-04T14:59:08.239Z,36.42
2023-02-04T15:01:35.894Z,36.30
2023-02-04T15:04:03.574Z,32.13
2023-02-04T15:06:31.064Z,34.75
2023-02-04T15:08:58.644Z,35.92
2023-02-04T15:11:26.105Z,30.40
2023-02-04T15:13:53.629Z,37.53
2023-02-04T15:16:21.113Z,30.88
2023-02-04T15:18:48.788Z,32.80
2023-02-04T15:21:31.760Z,29.42
2023-02-04T15:24:01.550Z,28.63
2023-02-04T15:26:29.054Z,28.65
2023-02-04T15:28:56.531Z,26.08
2023-02-04T15:31:25.468Z,31.15
2023-02-04T15:33:53.770Z,28.00
2023-02-04T15:36:21.343Z,30.98
2023-02-04T15:39:21.050Z,27.65
2023-02-04T15:41:48.516Z,24.77
2023-02-04T15:44:16.080Z,27.90
2023-02-04T15:46:43.520Z,27.88
2023-02-04T15:49:28.032Z,34.45
2023-02-04T15:51:55.605Z,31.95
2023-02-04T15:58:18.118Z,19.80
2023-02-04T16:00:53.924Z,26.10
2023-02-04T16:03:22.392Z,23.08
2023-02-04T16:05:52.116Z,27.80
2023-02-04T16:08:19.584Z,23.98
2023-02-04T16:10:52.469Z,25.25
2023-02-04T16:13:20.314Z,23.13
2023-02-04T16:15:47.829Z,21.98
2023-02-04T16:18:15.384Z,24.02
2023-02-04T16:20:42.881Z,24.38
2023-02-04T16:23:10.363Z,21.13
2023-02-04T16:25:37.975Z,23.40
2023-02-04T16:28:05.638Z,25.50
2023-02-04T16:30:33.374Z,18.77
2023-02-04T16:33:00.855Z,27.73
2023-02-04T16:35:30.477Z,18.38
2023-02-04T16:38:01.156Z,25.02
2023-02-04T16:40:29.614Z,21.83
2023-02-04T16:42:57.120Z,25.80
2023-02-04T16:45:24.650Z,21.58
2023-02-04T16:47:52.133Z,25.23
2023-02-04T16:50:22.467Z,22.35
2023-02-04T16:52:49.948Z,30.55
2023-02-04T16:55:17.515Z,22.98
2023-02-04T16:57:45.100Z,26.83
2023-02-04T17:00:13.143Z,27.02
2023-02-04T17:02:40.710Z,27.00
2023-02-04T17:05:08.491Z,29.45
2023-02-04T17:07:36.037Z,29.30
2023-02-04T17:10:04.009Z,36.40
2023-02-04T17:12:31.662Z,27.70
2023-02-04T17:15:28.327Z,27.23
2023-02-04T17:18:39.873Z,21.60
2023-02-04T17:21:08.559Z,28.90
2023-02-04T17:23:36.188Z,17.38
2023-02-04T17:26:03.825Z,24.52
2023-02-04T17:28:31.378Z,30.65
2023-02-04T17:30:59.175Z,21.13
2023-02-04T17:33:26.929Z,27.92
2023-02-04T17:35:54.518Z,23.88
2023-02-04T17:38:22.661Z,26.25
2023-02-04T17:40:50.535Z,21.77
2023-02-04T17:43:18.418Z,23.08
2023-02-04T17:45:45.882Z,26.10
2023-02-04T17:48:13.840Z,23.80
2023-02-04T17:50:43.543Z,25.83
2023-02-04T17:53:12.063Z,19.75
2023-02-04T17:55:43.310Z,29.25
2023-02-04T17:58:31.697Z,26.20
2023-02-04T18:01:16.325Z,24.63
2023-02-04T18:03:46.743Z,27.45
2023-02-04T18:06:30.325Z,24.52
2023-02-04T18:09:44.251Z,24.88
2023-02-04T18:12:16.723Z,26.20
2023-02-04T18:15:19.704Z,28.60
2023-02-04T18:17:47.261Z,29.20
2023-02-04T18:20:18.924Z,29.13
2023-02-04T18:22:50.779Z,29.50
2023-02-04T18:25:20.831Z,27.45
2023-02-04T18:27:48.409Z,28.42
2023-02-04T18:30:22.443Z,31.58
2023-02-04T18:32:51.391Z,31.02
2023-02-04T18:35:51.860Z,28.80
2023-02-04T18:38:39.827Z,28.65
2023-02-04T18:41:19.409Z,32.58
2023-02-04T18:44:04.020Z,26.85
2023-02-04T18:46:39.825Z,29.58
2023-02-04T18:49:32.922Z,25.25
2023-02-04T18:52:20.836Z,27.77
2023-02-04T18:54:56.792Z,27.92
2023-02-04T18:57:38.243Z,29.80
2023-02-04T19:00:12.519Z,29.70
2023-02-04T19:02:47.038Z,31.10
2023-02-04T19:05:26.677Z,27.10
2023-02-04T19:08:21.387Z,28.05
2023-02-04T19:10:50.103Z,31.67
2023-02-04T19:13:26.247Z,32.10
2023-02-04T19:15:56.916Z,28.48
2023-02-04T19:18:28.713Z,30.50
2023-02-04T19:21:01.674Z,35.33
2023-02-04T19:23:37.919Z,23.60
2023-02-04T19:26:28.222Z,33.50
2023-02-04T19:28:56.448Z,37.30
2023-02-04T19:31:34.760Z,33.33
2023-02-04T19:34:28.287Z,33.97
2023-02-04T19:36:56.058Z,34.13
2023-02-04T19:39:35.565Z,38.13
2023-02-04T19:42:36.632Z,39.95
2023-02-04T19:45:25.759Z,33.00
2023-02-04T19:47:57.645Z,26.98
2023-02-04T19:50:26.950Z,24.42
2023-02-04T19:53:22.678Z,30.60
2023-02-04T19:55:54.388Z,27.35
2023-02-04T19:58:28.847Z,34.75
2023-02-04T20:01:03.368Z,26.58
2023-02-04T20:03:37.150Z,24.60
2023-02-04T20:06:10.766Z,26.98
2023-02-04T20:08:41.207Z,30.50
2023-02-04T20:11:35.423Z,33.58
2023-02-04T20:14:15.293Z,33.60
2023-02-04T20:16:59.498Z,24.13
2023-02-04T20:19:29.303Z,27.85
2023-02-04T20:22:57.245Z,27.90
2023-02-04T20:25:48.529Z,23.23
2023-02-04T20:28:23.914Z,21.25
2023-02-04T20:30:52.258Z,20.27
2023-02-04T20:33:27.330Z,30.58
2023-02-04T20:36:23.050Z,27.83
2023-02-04T20:38:50.673Z,30.52
2023-02-04T20:41:20.640Z,38.42
2023-02-04T20:43:51.908Z,33.13
2023-02-04T20:46:26.000Z,27.58
2023-02-04T20:48:53.664Z,30.65
2023-02-04T20:51:27.204Z,34.75
2023-02-04T20:53:58.602Z,34.40
2023-02-04T20:56:35.862Z,31.90
2023-02-04T20:59:12.424Z,32.55
2023-02-04T21:01:45.073Z,33.42
2023-02-04T21:04:37.274Z,34.67
2023-02-04T21:07:19.842Z,36.05
2023-02-04T21:09:48.505Z,32.97
2023-02-04T21:12:16.277Z,32.65
2023-02-04T21:14:43.813Z,41.55
2023-02-04T21:17:11.392Z,35.65
2023-02-04T21:19:38.859Z,27.35
2023-02-04T21:22:06.315Z,29.75
2023-02-04T21:24:34.069Z,25.60
2023-02-04T21:27:01.702Z,34.45
2023-02-04T21:29:29.236Z,32.90
2023-02-04T21:31:56.847Z,25.45
2023-02-04T21:34:24.308Z,40.17
2023-02-04T21:36:51.845Z,40.95
2023-02-04T21:39:20.977Z,31.98
2023-02-04T21:42:08.411Z,32.63
2023-02-04T21:44:39.000Z,28.85
2023-02-04T21:47:06.733Z,41.28
2023-02-04T21:49:34.325Z,38.67
2023-02-04T21:52:01.747Z,31.02
2023-02-04T21:54:29.234Z,29.27
2023-02-04T21:56:56.878Z,32.40
2023-02-04T21:59:25.520Z,38.67
2023-02-04T22:01:53.168Z,38.03
2023-02-04T22:04:20.736Z,37.72
2023-02-04T22:06:48.167Z,49.95
2023-02-04T22:09:16.218Z,47.33
2023-02-04T22:11:43.997Z,47.42
2023-02-04T22:14:11.522Z,45.08
2023-02-04T22:16:38.979Z,48.85
2023-02-04T22:19:06.468Z,44.15
2023-02-04T22:21:35.124Z,45.45
2023-02-04T22:24:02.675Z,28.35
2023-02-04T22:26:30.136Z,36.67
2023-02-04T22:28:57.834Z,47.47
2023-02-04T22:31:25.628Z,33.53
2023-02-04T22:33:53.115Z,13.07
2023-02-04T22:36:20.595Z,43.72
2023-02-04T22:38:48.182Z,25.27
2023-02-04T22:41:15.627Z,32.28
2023-02-04T22:43:43.133Z,17.83
2023-02-04T22:46:10.619Z,32.00
2023-02-04T22:48:38.102Z,30.98
2023-02-04T22:51:05.690Z,31.38
2023-02-04T22:53:33.208Z,40.45
2023-02-04T22:56:00.680Z,51.67
2023-02-04T22:58:28.164Z,21.35
2023-02-04T23:00:55.645Z,36.85
2023-02-04T23:03:23.312Z,37.88
2023-02-04T23:05:50.974Z,29.45
2023-02-04T23:08:18.724Z,36.72
2023-02-04T23:10:46.706Z,44.45
2023-02-04T23:13:14.453Z,36.22
2023-02-04T23:15:41.988Z,30.23
2023-02-04T23:18:09.902Z,29.52
2023-02-04T23:20:39.696Z,38.35
2023-02-04T23:23:08.435Z,20.83
2023-02-04T23:25:36.610Z,15.40
2023-02-04T23:28:04.218Z,38.67
2023-02-04T23:30:31.748Z,24.13
2023-02-04T23:32:59.188Z,31.73
2023-02-04T23:35:26.871Z,34.25
2023-02-04T23:37:54.315Z,27.65
2023-02-04T23:40:21.886Z,35.72
2023-02-04T23:42:49.372Z,26.30
2023-02-04T23:45:17.088Z,30.10
2023-02-04T23:47:44.576Z,28.65
2023-02-04T23:50:12.172Z,30.65
2023-02-04T23:52:39.664Z,35.20
2023-02-04T23:55:07.311Z,30.30
2023-02-04T23:57:34.830Z,28.35
